createdAt,value
2018-12-25T00:00:56.420Z,12.50
2018-12-25T00:05:49.339Z,11.73
2018-12-25T00:11:04.128Z,9.93
2018-12-25T00:15:57.025Z,10.80
2018-12-25T00:20:49.862Z,8.80
2018-12-25T00:25:43.533Z,8.97
2018-12-25T00:30:36.411Z,10.13
2018-12-25T00:35:29.278Z,10.00
2018-12-25T00:40:22.221Z,10.53
2018-12-25T00:45:18.273Z,11.10
2018-12-25T00:50:12.073Z,10.47
2018-12-25T00:55:04.967Z,10.43
2018-12-25T00:59:57.897Z,11.27
2018-12-25T01:04:50.729Z,9.27
2018-12-25T01:09:43.630Z,10.47
2018-12-25T01:14:36.791Z,10.03
2018-12-25T01:19:30.606Z,11.47
2018-12-25T01:24:23.449Z,12.00
2018-12-25T01:29:16.297Z,9.73
2018-12-25T01:34:09.183Z,10.77
2018-12-25T01:39:02.347Z,9.73
2018-12-25T01:43:55.240Z,7.77
2018-12-25T01:48:48.141Z,7.63
2018-12-25T01:53:40.981Z,8.60
2018-12-25T01:58:33.841Z,8.33
2018-12-25T02:03:26.708Z,9.30
2018-12-25T02:08:19.573Z,9.33
2018-12-25T02:13:12.459Z,7.30
2018-12-25T02:18:05.335Z,8.03
2018-12-25T02:22:58.310Z,7.97
2018-12-25T02:27:51.171Z,8.53
2018-12-25T02:32:44.064Z,8.73
2018-12-25T02:37:36.906Z,8.97
2018-12-25T02:42:29.793Z,8.77
2018-12-25T02:47:22.651Z,7.97
2018-12-25T02:52:16.698Z,10.37
2018-12-25T02:57:09.526Z,8.43
2018-12-25T03:02:03.322Z,8.10
2018-12-25T03:06:56.202Z,8.83
2018-12-25T03:11:50.047Z,8.00
2018-12-25T03:16:42.899Z,8.07
2018-12-25T03:21:35.762Z,7.63
2018-12-25T03:26:28.619Z,8.53
2018-12-25T03:31:21.486Z,7.67
2018-12-25T03:36:14.367Z,8.30
2018-12-25T03:41:08.318Z,7.97
2018-12-25T03:46:01.198Z,7.90
2018-12-25T03:50:54.066Z,8.13
2018-12-25T03:55:47.026Z,9.87
2018-12-25T04:00:39.907Z,7.80
2018-12-25T04:05:32.798Z,7.27
2018-12-25T04:10:25.724Z,7.83
2018-12-25T04:15:18.626Z,11.57
2018-12-25T04:20:19.723Z,6.70
2018-12-25T04:25:06.247Z,6.30
2018-12-25T04:29:59.107Z,7.27
2018-12-25T04:34:51.985Z,6.60
2018-12-25T04:39:44.864Z,9.53
2018-12-25T04:44:37.758Z,11.13
2018-12-25T04:49:30.589Z,6.63
2018-12-25T04:54:23.486Z,7.27
2018-12-25T04:59:16.390Z,5.60
2018-12-25T05:04:12.203Z,8.37
2018-12-25T05:09:06.903Z,7.60
2018-12-25T05:13:59.756Z,8.23
2018-12-25T05:18:52.625Z,7.63
2018-12-25T05:23:45.481Z,6.37
2018-12-25T05:28:38.337Z,6.17
2018-12-25T05:33:31.224Z,5.67
2018-12-25T05:38:24.082Z,7.27
2018-12-25T05:43:16.924Z,6.00
2018-12-25T05:48:09.806Z,7.53
2018-12-25T05:53:02.694Z,11.10
2018-12-25T05:57:55.529Z,5.17
2018-12-25T06:02:48.398Z,7.13
2018-12-25T06:07:41.252Z,7.23
2018-12-25T06:12:34.158Z,5.63
2018-12-25T06:17:27.026Z,7.00
2018-12-25T06:22:21.117Z,5.83
2018-12-25T06:27:13.989Z,5.13
2018-12-25T06:32:08.685Z,4.40
2018-12-25T06:37:02.020Z,6.03
2018-12-25T06:41:54.896Z,5.13
2018-12-25T06:46:47.762Z,7.60
2018-12-25T06:51:40.627Z,7.70
2018-12-25T06:56:33.486Z,5.10
2018-12-25T07:01:28.449Z,7.30
2018-12-25T07:06:21.296Z,6.97
2018-12-25T07:11:14.146Z,9.93
2018-12-25T07:16:07.001Z,5.87
2018-12-25T07:20:59.886Z,7.73
2018-12-25T07:25:52.762Z,5.20
2018-12-25T07:30:45.633Z,6.57
2018-12-25T07:35:38.498Z,8.10
2018-12-25T07:40:31.333Z,6.33
2018-12-25T07:45:24.209Z,6.37
2018-12-25T07:50:17.074Z,6.83
2018-12-25T07:55:09.938Z,7.83
2018-12-25T08:00:03.169Z,7.17
2018-12-25T08:04:56.044Z,8.27
2018-12-25T08:09:48.910Z,6.00
2018-12-25T08:14:41.817Z,7.20
2018-12-25T08:19:34.703Z,9.33
2018-12-25T08:24:27.574Z,9.07
2018-12-25T08:29:20.434Z,6.53
2018-12-25T08:34:15.137Z,9.63
2018-12-25T08:39:08.063Z,15.07
2018-12-25T08:44:00.886Z,7.83
2018-12-25T08:48:53.750Z,8.30
2018-12-25T08:53:46.600Z,9.63
2018-12-25T08:58:39.462Z,7.93
2018-12-25T09:03:32.370Z,8.97
2018-12-25T09:08:25.230Z,8.43
2018-12-25T09:13:18.088Z,9.47
2018-12-25T09:18:11.034Z,9.13
2018-12-25T09:23:03.879Z,9.63
2018-12-25T09:27:56.786Z,10.93
2018-12-25T09:32:49.664Z,11.77
2018-12-25T09:37:42.556Z,11.73
2018-12-25T09:42:35.409Z,11.77
2018-12-25T09:47:28.254Z,9.83
2018-12-25T09:52:22.222Z,13.83
2018-12-25T09:57:15.082Z,12.10
2018-12-25T10:02:07.959Z,10.10
2018-12-25T10:07:00.851Z,14.63
2018-12-25T10:11:53.718Z,9.50
2018-12-25T10:16:46.566Z,12.53
2018-12-25T10:21:39.441Z,13.33
2018-12-25T10:26:32.307Z,12.10
2018-12-25T10:31:25.242Z,12.20
2018-12-25T10:36:18.114Z,11.73
2018-12-25T10:41:12.802Z,11.90
2018-12-25T10:46:05.772Z,11.17
2018-12-25T10:50:58.755Z,11.83
2018-12-25T10:55:51.605Z,11.03
2018-12-25T11:00:53.292Z,12.43
2018-12-25T11:05:46.250Z,14.90
2018-12-25T11:10:39.260Z,13.77
2018-12-25T11:15:36.193Z,13.13
2018-12-25T11:20:39.732Z,11.17
2018-12-25T11:25:36.149Z,10.30
2018-12-25T11:30:33.228Z,12.97
2018-12-25T11:35:29.622Z,12.63
2018-12-25T11:40:25.335Z,13.20
2018-12-25T11:45:20.887Z,17.10
2018-12-25T11:50:13.786Z,14.47
2018-12-25T11:55:06.656Z,14.07
2018-12-25T11:59:59.501Z,12.57
2018-12-25T12:04:52.384Z,15.30
2018-12-25T12:09:45.328Z,12.67
2018-12-25T12:14:38.205Z,12.20
2018-12-25T12:19:31.073Z,13.70
2018-12-25T12:24:23.940Z,15.40
2018-12-25T12:29:16.774Z,18.37
2018-12-25T12:34:09.677Z,15.30
2018-12-25T12:39:04.075Z,18.73
2018-12-25T12:43:56.992Z,15.30
2018-12-25T12:48:49.870Z,17.17
2018-12-25T12:53:45.576Z,14.93
2018-12-25T12:58:38.434Z,16.60
2018-12-25T13:03:31.352Z,15.40
2018-12-25T13:08:24.260Z,14.20
2018-12-25T13:13:17.152Z,15.63
2018-12-25T13:18:10.009Z,12.97
2018-12-25T13:23:02.891Z,16.00
2018-12-25T13:27:55.760Z,13.87
2018-12-25T13:32:48.667Z,12.27
2018-12-25T13:37:41.520Z,12.17
2018-12-25T13:42:34.391Z,15.20
2018-12-25T13:47:27.342Z,11.93
2018-12-25T13:52:20.222Z,12.77
2018-12-25T13:57:13.100Z,19.37
2018-12-25T14:02:05.964Z,12.23
2018-12-25T14:06:58.858Z,12.30
2018-12-25T14:11:52.802Z,10.77
2018-12-25T14:16:45.746Z,10.30
2018-12-25T14:21:38.657Z,12.40
2018-12-25T14:26:31.533Z,12.67
2018-12-25T14:31:24.412Z,11.57
2018-12-25T14:36:17.294Z,12.80
2018-12-25T14:41:10.261Z,13.50
2018-12-25T14:46:03.134Z,14.27
2018-12-25T14:50:55.995Z,11.93
2018-12-25T14:55:49.979Z,11.80
2018-12-25T15:00:42.856Z,12.07
2018-12-25T15:05:35.724Z,13.43
2018-12-25T15:10:28.943Z,13.73
2018-12-25T15:15:21.803Z,14.77
2018-12-25T15:20:14.696Z,13.17
2018-12-25T15:25:07.613Z,14.50
2018-12-25T15:30:00.631Z,13.93
2018-12-25T15:34:55.849Z,13.37
2018-12-25T15:39:48.702Z,14.63
2018-12-25T15:44:41.585Z,13.73
2018-12-25T15:49:34.473Z,13.90
2018-12-25T15:54:27.330Z,13.57
2018-12-25T15:59:20.194Z,13.23
2018-12-25T16:04:13.063Z,13.23
2018-12-25T16:09:07.453Z,12.80
2018-12-25T16:14:00.320Z,13.40
2018-12-25T16:18:53.177Z,14.47
2018-12-25T16:23:46.042Z,15.03
2018-12-25T16:28:38.898Z,14.73
2018-12-25T16:33:31.793Z,12.67
2018-12-25T16:38:24.666Z,16.57
2018-12-25T16:43:18.636Z,15.63
2018-12-25T16:48:11.480Z,14.40
2018-12-25T16:53:04.473Z,14.80
2018-12-25T16:57:57.475Z,14.40
2018-12-25T17:02:50.356Z,14.53
2018-12-25T17:07:43.201Z,14.47
2018-12-25T17:12:36.086Z,15.37
2018-12-25T17:17:28.953Z,16.10
2018-12-25T17:22:22.142Z,17.93
2018-12-25T17:27:15.004Z,18.17
2018-12-25T17:32:07.888Z,16.00
2018-12-25T17:37:00.751Z,15.03
2018-12-25T17:41:53.652Z,20.27
2018-12-25T17:46:46.506Z,17.83
2018-12-25T17:51:39.351Z,16.27
2018-12-25T17:56:37.705Z,17.00
2018-12-25T18:01:26.982Z,21.07
2018-12-25T18:06:19.863Z,19.43
2018-12-25T18:11:12.753Z,17.53
2018-12-25T18:16:05.611Z,17.53
2018-12-25T18:20:58.467Z,20.37
2018-12-25T18:25:51.367Z,20.23
2018-12-25T18:30:44.237Z,19.53
2018-12-25T18:35:37.105Z,18.80
2018-12-25T18:40:29.968Z,17.73
2018-12-25T18:45:22.829Z,18.77
2018-12-25T18:50:15.685Z,21.17
2018-12-25T18:55:08.547Z,19.50
2018-12-25T19:00:01.395Z,21.33
2018-12-25T19:04:55.246Z,20.40
2018-12-25T19:09:48.132Z,21.03
2018-12-25T19:14:58.732Z,21.07
2018-12-25T19:19:51.627Z,23.13
2018-12-25T19:24:44.477Z,19.23
2018-12-25T19:29:37.465Z,22.50
2018-12-25T19:34:30.366Z,19.23
2018-12-25T19:39:23.252Z,19.30
2018-12-25T19:44:16.099Z,19.63
2018-12-25T19:49:08.986Z,18.80
2018-12-25T19:54:01.831Z,19.73
2018-12-25T19:58:54.708Z,18.83
2018-12-25T20:03:53.706Z,19.20
2018-12-25T20:09:59.604Z,18.23
2018-12-25T20:15:45.099Z,20.90
2018-12-25T20:21:19.272Z,22.33
2018-12-25T20:27:09.106Z,20.73
2018-12-25T20:33:13.907Z,18.83
2018-12-25T20:39:28.843Z,16.63
2018-12-25T20:45:40.715Z,16.87
2018-12-25T20:51:41.437Z,15.97
2018-12-25T20:57:37.461Z,19.90
2018-12-25T21:03:52.366Z,23.40
2018-12-25T21:09:41.561Z,17.23
2018-12-25T21:15:52.444Z,16.93
2018-12-25T21:21:47.670Z,16.80
2018-12-25T21:27:29.726Z,16.67
2018-12-25T21:32:22.738Z,14.83
2018-12-25T21:37:15.973Z,14.97
2018-12-25T21:42:09.246Z,15.93
2018-12-25T21:47:02.833Z,18.27
2018-12-25T21:51:55.721Z,16.33
2018-12-25T21:56:48.720Z,14.83
2018-12-25T22:01:41.562Z,17.90
2018-12-25T22:06:34.427Z,19.37
2018-12-25T22:11:27.279Z,20.67
2018-12-25T22:16:20.217Z,18.50
2018-12-25T22:21:13.219Z,18.50
2018-12-25T22:26:07.979Z,18.17
2018-12-25T22:31:00.859Z,18.90
2018-12-25T22:35:53.751Z,17.97
2018-12-25T22:40:46.620Z,17.03
2018-12-25T22:45:39.507Z,18.37
2018-12-25T22:50:32.431Z,17.83
2018-12-25T22:55:25.508Z,19.57
2018-12-25T23:00:19.653Z,21.07
2018-12-25T23:05:12.531Z,17.90
2018-12-25T23:10:07.697Z,19.37
2018-12-25T23:15:00.573Z,18.73
2018-12-25T23:19:53.459Z,18.53
2018-12-25T23:24:46.321Z,16.87
2018-12-25T23:29:39.231Z,18.80
2018-12-25T23:34:32.102Z,15.20
2018-12-25T23:39:25.011Z,15.17
2018-12-25T23:44:17.867Z,19.27
2018-12-25T23:49:10.747Z,16.77
2018-12-25T23:54:03.597Z,16.07
2018-12-25T23:58:56.612Z,18.03
